Kezdőlap
METAR-TAF:

METAR-TAF

Repülőterek :

Skelton Airport

Eureka, Alaszka, Amerikai Egyesült Államok

földrajzi szélesség: 61-56N, földrajzi hosszúság: 147-10W, magasság: 1002 m

Jelenlegi meteorológiai megfigyelések

A jelentés 15 perccel ezelõtt készült, 07:56 UTC
Észak-északkeleti szél 6 kt
Hőmérséklet -7°C
Páratartalom 62%
Légköri nyomás 1002 hPa
Látótávolság: 16.1 km
Kevés felhő 10000 lábon

METAR: PAZK 200756Z AUTO 03006KT 10SM FEW100 M07/M13 A2959 RMK AO2 SLP078 T10721128 400171072 FZRANO

Idő: 00:11 (08:11 UTC)


TAF: hiányzik

Meteorológiai megfigyelések és előrejelzések több, mint 4000 repülőtéren (METAR és TAF jelentéseket).

A térképen piros és sárga pontok jelzik az elérhető meteorológiai állomásokat.

Mozgassa az egeret a pont fölött, hogy megjelenjen az állomás neve.

Azután kattintson az időjárási megfigyelések és előrejelzések megtekintéséhez.

A térkép megváltoztatása: kattintson a fekete keresztel jelölt zöld gombra ráközelítéshez, a vonallal jelölt zöld gombra távolításhoz, vagy a zöld nyilakra a szomszédos térképek eléréséhez.


METAR-TAF: